sensor_id;sensor_type;location;lat;lon;timestamp;P1;durP1;ratioP1;P2;durP2;ratioP2
77170;SDS011;66144;50.020;14.422;2023-03-14T00:00:59;7.10;;;4.30;;
77170;SDS011;66144;50.020;14.422;2023-03-14T00:03:24;7.65;;;3.53;;
77170;SDS011;66144;50.020;14.422;2023-03-14T00:05:49;7.30;;;3.75;;
77170;SDS011;66144;50.020;14.422;2023-03-14T00:08:15;6.78;;;3.45;;
77170;SDS011;66144;50.020;14.422;2023-03-14T00:10:40;6.93;;;3.60;;
77170;SDS011;66144;50.020;14.422;2023-03-14T00:13:06;5.32;;;2.92;;
77170;SDS011;66144;50.020;14.422;2023-03-14T00:15:34;5.70;;;2.92;;
77170;SDS011;66144;50.020;14.422;2023-03-14T00:18:00;6.25;;;3.33;;
77170;SDS011;66144;50.020;14.422;2023-03-14T00:20:26;5.78;;;2.80;;
77170;SDS011;66144;50.020;14.422;2023-03-14T00:22:51;5.90;;;3.20;;
77170;SDS011;66144;50.020;14.422;2023-03-14T00:25:16;4.45;;;2.58;;
77170;SDS011;66144;50.020;14.422;2023-03-14T00:27:42;4.70;;;2.80;;
77170;SDS011;66144;50.020;14.422;2023-03-14T00:30:07;7.15;;;3.10;;
77170;SDS011;66144;50.020;14.422;2023-03-14T00:32:33;5.55;;;3.00;;
77170;SDS011;66144;50.020;14.422;2023-03-14T00:34:59;5.25;;;3.25;;
77170;SDS011;66144;50.020;14.422;2023-03-14T00:37:25;5.65;;;2.95;;
77170;SDS011;66144;50.020;14.422;2023-03-14T00:39:51;5.57;;;2.97;;
77170;SDS011;66144;50.020;14.422;2023-03-14T00:42:17;7.00;;;3.25;;
77170;SDS011;66144;50.020;14.422;2023-03-14T00:44:42;5.60;;;3.28;;
77170;SDS011;66144;50.020;14.422;2023-03-14T00:47:07;5.43;;;3.03;;
77170;SDS011;66144;50.020;14.422;2023-03-14T00:49:33;5.65;;;2.85;;
77170;SDS011;66144;50.020;14.422;2023-03-14T00:51:58;4.90;;;2.67;;
77170;SDS011;66144;50.020;14.422;2023-03-14T00:54:24;6.32;;;3.75;;
77170;SDS011;66144;50.020;14.422;2023-03-14T00:56:49;11.25;;;3.45;;
77170;SDS011;66144;50.020;14.422;2023-03-14T00:59:15;6.20;;;2.50;;
77170;SDS011;66144;50.020;14.422;2023-03-14T01:01:41;6.35;;;3.05;;
77170;SDS011;66144;50.020;14.422;2023-03-14T01:04:07;4.53;;;2.55;;
77170;SDS011;66144;50.020;14.422;2023-03-14T01:06:32;4.65;;;2.22;;
77170;SDS011;66144;50.020;14.422;2023-03-14T01:08:58;5.13;;;2.67;;
77170;SDS011;66144;50.020;14.422;2023-03-14T01:11:28;5.72;;;2.53;;
77170;SDS011;66144;50.020;14.422;2023-03-14T01:13:57;5.90;;;2.83;;
77170;SDS011;66144;50.020;14.422;2023-03-14T01:16:24;6.18;;;2.70;;
77170;SDS011;66144;50.020;14.422;2023-03-14T01:18:52;5.00;;;3.15;;
77170;SDS011;66144;50.020;14.422;2023-03-14T01:23:44;5.22;;;2.80;;
77170;SDS011;66144;50.020;14.422;2023-03-14T01:26:11;4.75;;;2.60;;
77170;SDS011;66144;50.020;14.422;2023-03-14T01:28:39;4.53;;;2.15;;
77170;SDS011;66144;50.020;14.422;2023-03-14T01:31:06;5.43;;;2.40;;
77170;SDS011;66144;50.020;14.422;2023-03-14T01:33:33;3.78;;;2.40;;
77170;SDS011;66144;50.020;14.422;2023-03-14T01:35:58;4.82;;;2.22;;
77170;SDS011;66144;50.020;14.422;2023-03-14T01:38:24;3.90;;;2.00;;
77170;SDS011;66144;50.020;14.422;2023-03-14T01:40:49;5.70;;;2.20;;
77170;SDS011;66144;50.020;14.422;2023-03-14T01:43:16;4.55;;;2.60;;
77170;SDS011;66144;50.020;14.422;2023-03-14T01:46:30;4.80;;;2.42;;
77170;SDS011;66144;50.020;14.422;2023-03-14T01:48:31;5.05;;;3.17;;
77170;SDS011;66144;50.020;14.422;2023-03-14T01:51:00;4.15;;;2.30;;
77170;SDS011;66144;50.020;14.422;2023-03-14T01:53:27;6.50;;;2.72;;
77170;SDS011;66144;50.020;14.422;2023-03-14T01:55:54;4.78;;;3.10;;
77170;SDS011;66144;50.020;14.422;2023-03-14T01:58:24;5.45;;;2.63;;
77170;SDS011;66144;50.020;14.422;2023-03-14T02:00:53;5.30;;;2.45;;
77170;SDS011;66144;50.020;14.422;2023-03-14T02:03:20;5.55;;;3.03;;
77170;SDS011;66144;50.020;14.422;2023-03-14T02:05:48;5.20;;;3.22;;
77170;SDS011;66144;50.020;14.422;2023-03-14T02:08:16;7.57;;;2.72;;
77170;SDS011;66144;50.020;14.422;2023-03-14T02:10:45;6.45;;;2.83;;
77170;SDS011;66144;50.020;14.422;2023-03-14T02:13:13;6.85;;;3.10;;
77170;SDS011;66144;50.020;14.422;2023-03-14T02:15:41;5.70;;;2.97;;
77170;SDS011;66144;50.020;14.422;2023-03-14T02:18:07;5.43;;;2.75;;
77170;SDS011;66144;50.020;14.422;2023-03-14T02:20:34;4.82;;;2.55;;
77170;SDS011;66144;50.020;14.422;2023-03-14T02:23:06;5.00;;;2.75;;
77170;SDS011;66144;50.020;14.422;2023-03-14T02:25:43;4.97;;;2.78;;
77170;SDS011;66144;50.020;14.422;2023-03-14T02:28:13;4.50;;;2.58;;
77170;SDS011;66144;50.020;14.422;2023-03-14T02:30:39;5.30;;;2.78;;
77170;SDS011;66144;50.020;14.422;2023-03-14T02:33:08;9.38;;;3.47;;
77170;SDS011;66144;50.020;14.422;2023-03-14T02:38:50;7.28;;;3.00;;
77170;SDS011;66144;50.020;14.422;2023-03-14T02:41:20;5.18;;;3.08;;
77170;SDS011;66144;50.020;14.422;2023-03-14T02:43:45;6.38;;;3.08;;
77170;SDS011;66144;50.020;14.422;2023-03-14T02:46:11;5.53;;;2.97;;
77170;SDS011;66144;50.020;14.422;2023-03-14T02:48:50;5.28;;;3.13;;
77170;SDS011;66144;50.020;14.422;2023-03-14T02:51:18;5.03;;;2.80;;
77170;SDS011;66144;50.020;14.422;2023-03-14T02:53:45;5.85;;;2.75;;
77170;SDS011;66144;50.020;14.422;2023-03-14T02:56:10;4.68;;;2.50;;
77170;SDS011;66144;50.020;14.422;2023-03-14T02:58:36;4.82;;;2.90;;
77170;SDS011;66144;50.020;14.422;2023-03-14T03:01:01;5.50;;;2.53;;
77170;SDS011;66144;50.020;14.422;2023-03-14T03:03:27;5.07;;;2.88;;
77170;SDS011;66144;50.020;14.422;2023-03-14T03:05:53;6.10;;;3.13;;
77170;SDS011;66144;50.020;14.422;2023-03-14T03:08:20;4.38;;;2.25;;
77170;SDS011;66144;50.020;14.422;2023-03-14T03:10:48;5.72;;;3.25;;
77170;SDS011;66144;50.020;14.422;2023-03-14T03:13:14;6.10;;;2.72;;
77170;SDS011;66144;50.020;14.422;2023-03-14T03:15:39;5.38;;;3.05;;
77170;SDS011;66144;50.020;14.422;2023-03-14T03:18:05;6.80;;;3.03;;
77170;SDS011;66144;50.020;14.422;2023-03-14T03:20:31;4.93;;;2.33;;
77170;SDS011;66144;50.020;14.422;2023-03-14T03:22:57;5.53;;;3.17;;
77170;SDS011;66144;50.020;14.422;2023-03-14T03:25:23;4.13;;;2.20;;
77170;SDS011;66144;50.020;14.422;2023-03-14T03:27:49;6.65;;;2.83;;
77170;SDS011;66144;50.020;14.422;2023-03-14T03:30:14;5.88;;;2.50;;
77170;SDS011;66144;50.020;14.422;2023-03-14T03:32:40;4.50;;;2.47;;
77170;SDS011;66144;50.020;14.422;2023-03-14T03:35:05;6.13;;;3.45;;
77170;SDS011;66144;50.020;14.422;2023-03-14T03:37:31;3.75;;;2.20;;
77170;SDS011;66144;50.020;14.422;2023-03-14T03:39:57;5.28;;;2.53;;
77170;SDS011;66144;50.020;14.422;2023-03-14T03:42:22;4.63;;;2.50;;
77170;SDS011;66144;50.020;14.422;2023-03-14T03:44:48;4.35;;;2.45;;
77170;SDS011;66144;50.020;14.422;2023-03-14T03:47:14;5.40;;;2.88;;
77170;SDS011;66144;50.020;14.422;2023-03-14T03:49:40;4.15;;;2.50;;
77170;SDS011;66144;50.020;14.422;2023-03-14T03:52:05;4.55;;;2.42;;
77170;SDS011;66144;50.020;14.422;2023-03-14T03:54:31;5.68;;;2.40;;
77170;SDS011;66144;50.020;14.422;2023-03-14T03:56:59;4.50;;;2.00;;
77170;SDS011;66144;50.020;14.422;2023-03-14T03:59:24;5.50;;;2.33;;
77170;SDS011;66144;50.020;14.422;2023-03-14T04:01:50;6.47;;;2.47;;
77170;SDS011;66144;50.020;14.422;2023-03-14T04:04:15;3.83;;;2.08;;
77170;SDS011;66144;50.020;14.422;2023-03-14T04:06:40;4.00;;;1.80;;
77170;SDS011;66144;50.020;14.422;2023-03-14T04:09:07;3.63;;;1.27;;
77170;SDS011;66144;50.020;14.422;2023-03-14T04:11:33;3.55;;;1.40;;
77170;SDS011;66144;50.020;14.422;2023-03-14T04:13:58;1.42;;;1.10;;
77170;SDS011;66144;50.020;14.422;2023-03-14T04:16:24;2.22;;;0.88;;
77170;SDS011;66144;50.020;14.422;2023-03-14T04:18:51;1.02;;;0.55;;
77170;SDS011;66144;50.020;14.422;2023-03-14T04:21:16;1.42;;;0.70;;
77170;SDS011;66144;50.020;14.422;2023-03-14T04:23:42;0.85;;;0.57;;
77170;SDS011;66144;50.020;14.422;2023-03-14T04:26:07;0.82;;;0.65;;
77170;SDS011;66144;50.020;14.422;2023-03-14T04:28:33;1.38;;;0.63;;
77170;SDS011;66144;50.020;14.422;2023-03-14T04:31:06;0.43;;;0.40;;
77170;SDS011;66144;50.020;14.422;2023-03-14T04:33:32;1.30;;;0.70;;
77170;SDS011;66144;50.020;14.422;2023-03-14T04:35:57;0.93;;;0.63;;
77170;SDS011;66144;50.020;14.422;2023-03-14T04:38:23;1.38;;;0.90;;
77170;SDS011;66144;50.020;14.422;2023-03-14T04:40:48;1.35;;;0.73;;
77170;SDS011;66144;50.020;14.422;2023-03-14T04:43:13;3.10;;;1.02;;
77170;SDS011;66144;50.020;14.422;2023-03-14T04:45:42;4.22;;;1.58;;
77170;SDS011;66144;50.020;14.422;2023-03-14T04:48:07;2.83;;;1.10;;
77170;SDS011;66144;50.020;14.422;2023-03-14T04:50:33;1.50;;;0.80;;
77170;SDS011;66144;50.020;14.422;2023-03-14T04:52:58;1.40;;;0.70;;
77170;SDS011;66144;50.020;14.422;2023-03-14T04:55:23;1.00;;;0.63;;
77170;SDS011;66144;50.020;14.422;2023-03-14T04:57:49;1.45;;;0.70;;
77170;SDS011;66144;50.020;14.422;2023-03-14T05:00:14;1.30;;;0.70;;
77170;SDS011;66144;50.020;14.422;2023-03-14T05:02:43;1.23;;;0.88;;
77170;SDS011;66144;50.020;14.422;2023-03-14T05:05:09;2.05;;;1.30;;
77170;SDS011;66144;50.020;14.422;2023-03-14T05:07:34;2.97;;;1.05;;
77170;SDS011;66144;50.020;14.422;2023-03-14T05:09:59;3.30;;;1.42;;
77170;SDS011;66144;50.020;14.422;2023-03-14T05:12:25;2.50;;;1.20;;
77170;SDS011;66144;50.020;14.422;2023-03-14T05:14:50;3.50;;;1.52;;
77170;SDS011;66144;50.020;14.422;2023-03-14T05:17:15;3.17;;;1.10;;
77170;SDS011;66144;50.020;14.422;2023-03-14T05:19:41;2.22;;;1.13;;
77170;SDS011;66144;50.020;14.422;2023-03-14T05:22:07;2.40;;;1.25;;
77170;SDS011;66144;50.020;14.422;2023-03-14T05:24:32;2.40;;;1.20;;
77170;SDS011;66144;50.020;14.422;2023-03-14T05:26:58;2.63;;;1.25;;
77170;SDS011;66144;50.020;14.422;2023-03-14T05:29:23;2.65;;;1.05;;
77170;SDS011;66144;50.020;14.422;2023-03-14T05:31:49;2.15;;;1.17;;
77170;SDS011;66144;50.020;14.422;2023-03-14T05:34:14;2.08;;;0.77;;
77170;SDS011;66144;50.020;14.422;2023-03-14T05:36:40;0.73;;;0.68;;
77170;SDS011;66144;50.020;14.422;2023-03-14T05:39:05;2.70;;;0.85;;
77170;SDS011;66144;50.020;14.422;2023-03-14T05:41:30;1.52;;;0.90;;
77170;SDS011;66144;50.020;14.422;2023-03-14T05:43:56;3.22;;;1.30;;
77170;SDS011;66144;50.020;14.422;2023-03-14T05:46:21;2.28;;;1.35;;
77170;SDS011;66144;50.020;14.422;2023-03-14T05:48:46;2.65;;;1.00;;
77170;SDS011;66144;50.020;14.422;2023-03-14T05:51:12;5.15;;;1.30;;
77170;SDS011;66144;50.020;14.422;2023-03-14T05:53:37;2.72;;;1.13;;
77170;SDS011;66144;50.020;14.422;2023-03-14T05:56:02;2.00;;;1.00;;
77170;SDS011;66144;50.020;14.422;2023-03-14T05:58:28;1.85;;;0.95;;
77170;SDS011;66144;50.020;14.422;2023-03-14T06:00:53;2.42;;;1.17;;
77170;SDS011;66144;50.020;14.422;2023-03-14T06:03:19;2.05;;;0.90;;
77170;SDS011;66144;50.020;14.422;2023-03-14T06:05:44;1.20;;;0.60;;
77170;SDS011;66144;50.020;14.422;2023-03-14T06:08:09;1.80;;;0.90;;
77170;SDS011;66144;50.020;14.422;2023-03-14T06:10:35;0.93;;;0.50;;
77170;SDS011;66144;50.020;14.422;2023-03-14T06:13:01;1.35;;;0.60;;
77170;SDS011;66144;50.020;14.422;2023-03-14T06:15:26;1.55;;;0.88;;
77170;SDS011;66144;50.020;14.422;2023-03-14T06:17:53;1.40;;;0.68;;
77170;SDS011;66144;50.020;14.422;2023-03-14T06:20:20;1.42;;;0.80;;
77170;SDS011;66144;50.020;14.422;2023-03-14T06:22:45;1.73;;;0.63;;
77170;SDS011;66144;50.020;14.422;2023-03-14T06:25:10;2.92;;;1.35;;
77170;SDS011;66144;50.020;14.422;2023-03-14T06:27:36;1.55;;;0.80;;
77170;SDS011;66144;50.020;14.422;2023-03-14T06:30:01;2.85;;;0.80;;
77170;SDS011;66144;50.020;14.422;2023-03-14T06:32:27;2.42;;;0.82;;
77170;SDS011;66144;50.020;14.422;2023-03-14T06:34:52;1.90;;;0.70;;
77170;SDS011;66144;50.020;14.422;2023-03-14T06:37:18;0.93;;;0.60;;
77170;SDS011;66144;50.020;14.422;2023-03-14T06:39:43;1.73;;;0.90;;
77170;SDS011;66144;50.020;14.422;2023-03-14T06:42:09;1.63;;;0.70;;
77170;SDS011;66144;50.020;14.422;2023-03-14T06:44:35;2.10;;;0.85;;
77170;SDS011;66144;50.020;14.422;2023-03-14T06:47:00;1.30;;;0.60;;
77170;SDS011;66144;50.020;14.422;2023-03-14T06:49:26;3.20;;;1.42;;
77170;SDS011;66144;50.020;14.422;2023-03-14T06:51:51;2.25;;;1.00;;
77170;SDS011;66144;50.020;14.422;2023-03-14T06:54:16;2.33;;;1.00;;
77170;SDS011;66144;50.020;14.422;2023-03-14T06:56:42;1.70;;;0.77;;
77170;SDS011;66144;50.020;14.422;2023-03-14T06:59:07;1.65;;;0.65;;
77170;SDS011;66144;50.020;14.422;2023-03-14T07:01:36;1.23;;;0.73;;
77170;SDS011;66144;50.020;14.422;2023-03-14T07:04:01;2.17;;;0.60;;
77170;SDS011;66144;50.020;14.422;2023-03-14T07:06:27;2.10;;;0.85;;
77170;SDS011;66144;50.020;14.422;2023-03-14T07:08:54;1.20;;;0.50;;
77170;SDS011;66144;50.020;14.422;2023-03-14T07:11:20;1.23;;;0.60;;
77170;SDS011;66144;50.020;14.422;2023-03-14T07:13:46;1.42;;;0.70;;
77170;SDS011;66144;50.020;14.422;2023-03-14T07:16:11;2.63;;;0.50;;
77170;SDS011;66144;50.020;14.422;2023-03-14T07:18:36;1.80;;;0.80;;
77170;SDS011;66144;50.020;14.422;2023-03-14T07:21:02;1.23;;;0.73;;
77170;SDS011;66144;50.020;14.422;2023-03-14T07:23:28;1.42;;;0.70;;
77170;SDS011;66144;50.020;14.422;2023-03-14T07:25:54;1.88;;;0.65;;
77170;SDS011;66144;50.020;14.422;2023-03-14T07:28:20;0.68;;;0.50;;
77170;SDS011;66144;50.020;14.422;2023-03-14T07:30:46;2.33;;;0.60;;
77170;SDS011;66144;50.020;14.422;2023-03-14T07:33:12;0.85;;;0.50;;
77170;SDS011;66144;50.020;14.422;2023-03-14T07:35:37;2.25;;;0.60;;
77170;SDS011;66144;50.020;14.422;2023-03-14T07:38:02;2.40;;;0.70;;
77170;SDS011;66144;50.020;14.422;2023-03-14T07:40:28;0.45;;;0.43;;
77170;SDS011;66144;50.020;14.422;2023-03-14T07:42:53;0.88;;;0.50;;
77170;SDS011;66144;50.020;14.422;2023-03-14T07:45:20;0.50;;;0.50;;
77170;SDS011;66144;50.020;14.422;2023-03-14T07:47:45;1.10;;;0.50;;
77170;SDS011;66144;50.020;14.422;2023-03-14T07:50:10;1.00;;;0.40;;
77170;SDS011;66144;50.020;14.422;2023-03-14T07:52:36;1.58;;;0.88;;
77170;SDS011;66144;50.020;14.422;2023-03-14T07:55:01;0.75;;;0.60;;
77170;SDS011;66144;50.020;14.422;2023-03-14T07:57:27;1.10;;;0.60;;
77170;SDS011;66144;50.020;14.422;2023-03-14T07:59:52;0.98;;;0.57;;
77170;SDS011;66144;50.020;14.422;2023-03-14T08:02:17;0.77;;;0.50;;
77170;SDS011;66144;50.020;14.422;2023-03-14T08:04:45;1.17;;;0.55;;
77170;SDS011;66144;50.020;14.422;2023-03-14T08:07:10;2.33;;;0.90;;
77170;SDS011;66144;50.020;14.422;2023-03-14T08:09:36;0.98;;;0.50;;
77170;SDS011;66144;50.020;14.422;2023-03-14T08:12:01;1.15;;;0.70;;
77170;SDS011;66144;50.020;14.422;2023-03-14T08:14:26;1.55;;;0.82;;
77170;SDS011;66144;50.020;14.422;2023-03-14T08:16:54;0.82;;;0.68;;
77170;SDS011;66144;50.020;14.422;2023-03-14T08:19:19;1.80;;;0.80;;
77170;SDS011;66144;50.020;14.422;2023-03-14T08:21:45;1.20;;;0.45;;
77170;SDS011;66144;50.020;14.422;2023-03-14T08:24:11;0.80;;;0.40;;
77170;SDS011;66144;50.020;14.422;2023-03-14T08:26:36;2.22;;;0.60;;
77170;SDS011;66144;50.020;14.422;2023-03-14T08:29:01;1.95;;;0.60;;
77170;SDS011;66144;50.020;14.422;2023-03-14T08:31:29;0.73;;;0.50;;
77170;SDS011;66144;50.020;14.422;2023-03-14T08:33:54;0.90;;;0.50;;
77170;SDS011;66144;50.020;14.422;2023-03-14T08:36:20;1.00;;;0.40;;
77170;SDS011;66144;50.020;14.422;2023-03-14T08:38:45;1.48;;;0.47;;
77170;SDS011;66144;50.020;14.422;2023-03-14T08:41:11;2.13;;;0.50;;
77170;SDS011;66144;50.020;14.422;2023-03-14T08:43:36;3.33;;;0.80;;
77170;SDS011;66144;50.020;14.422;2023-03-14T08:46:02;1.20;;;0.60;;
77170;SDS011;66144;50.020;14.422;2023-03-14T08:48:28;0.68;;;0.40;;
77170;SDS011;66144;50.020;14.422;2023-03-14T08:51:04;0.57;;;0.57;;
77170;SDS011;66144;50.020;14.422;2023-03-14T08:53:30;0.55;;;0.50;;
77170;SDS011;66144;50.020;14.422;2023-03-14T08:55:55;1.52;;;0.50;;
77170;SDS011;66144;50.020;14.422;2023-03-14T08:58:21;1.08;;;0.70;;
77170;SDS011;66144;50.020;14.422;2023-03-14T09:00:48;1.42;;;0.73;;
77170;SDS011;66144;50.020;14.422;2023-03-14T09:03:13;1.52;;;0.75;;
77170;SDS011;66144;50.020;14.422;2023-03-14T09:05:39;1.17;;;0.68;;
77170;SDS011;66144;50.020;14.422;2023-03-14T09:08:05;0.85;;;0.70;;
77170;SDS011;66144;50.020;14.422;2023-03-14T09:10:30;1.10;;;0.50;;
77170;SDS011;66144;50.020;14.422;2023-03-14T09:12:56;1.08;;;0.70;;
77170;SDS011;66144;50.020;14.422;2023-03-14T09:15:23;1.17;;;0.63;;
77170;SDS011;66144;50.020;14.422;2023-03-14T09:17:48;2.10;;;0.60;;
77170;SDS011;66144;50.020;14.422;2023-03-14T09:20:14;1.27;;;0.50;;
77170;SDS011;66144;50.020;14.422;2023-03-14T09:22:39;1.33;;;0.75;;
77170;SDS011;66144;50.020;14.422;2023-03-14T09:25:05;2.80;;;1.35;;
77170;SDS011;66144;50.020;14.422;2023-03-14T09:27:31;1.75;;;0.80;;
77170;SDS011;66144;50.020;14.422;2023-03-14T09:29:57;0.88;;;0.55;;
77170;SDS011;66144;50.020;14.422;2023-03-14T09:32:22;1.30;;;0.50;;
77170;SDS011;66144;50.020;14.422;2023-03-14T09:34:47;0.90;;;0.50;;
77170;SDS011;66144;50.020;14.422;2023-03-14T09:37:13;2.03;;;0.60;;
77170;SDS011;66144;50.020;14.422;2023-03-14T09:39:40;1.10;;;0.82;;
77170;SDS011;66144;50.020;14.422;2023-03-14T09:42:06;0.45;;;0.45;;
77170;SDS011;66144;50.020;14.422;2023-03-14T09:44:38;1.80;;;0.60;;
77170;SDS011;66144;50.020;14.422;2023-03-14T09:47:07;2.78;;;0.60;;
77170;SDS011;66144;50.020;14.422;2023-03-14T09:49:41;1.65;;;0.40;;
77170;SDS011;66144;50.020;14.422;2023-03-14T09:52:40;1.10;;;0.50;;
77170;SDS011;66144;50.020;14.422;2023-03-14T09:55:05;1.90;;;0.50;;
77170;SDS011;66144;50.020;14.422;2023-03-14T09:57:35;4.03;;;0.63;;
77170;SDS011;66144;50.020;14.422;2023-03-14T10:00:05;2.33;;;0.70;;
77170;SDS011;66144;50.020;14.422;2023-03-14T10:02:39;2.65;;;0.95;;
77170;SDS011;66144;50.020;14.422;2023-03-14T10:05:27;1.70;;;0.75;;
77170;SDS011;66144;50.020;14.422;2023-03-14T10:07:54;1.70;;;0.70;;
77170;SDS011;66144;50.020;14.422;2023-03-14T10:10:20;1.27;;;0.60;;
77170;SDS011;66144;50.020;14.422;2023-03-14T10:12:49;1.60;;;0.60;;
77170;SDS011;66144;50.020;14.422;2023-03-14T10:15:30;1.50;;;0.70;;
77170;SDS011;66144;50.020;14.422;2023-03-14T10:17:58;1.40;;;0.65;;
77170;SDS011;66144;50.020;14.422;2023-03-14T10:20:33;1.38;;;0.73;;
77170;SDS011;66144;50.020;14.422;2023-03-14T10:25:45;1.00;;;0.70;;
77170;SDS011;66144;50.020;14.422;2023-03-14T10:30:56;1.45;;;0.60;;
77170;SDS011;66144;50.020;14.422;2023-03-14T10:35:56;1.35;;;0.70;;
77170;SDS011;66144;50.020;14.422;2023-03-14T10:38:26;1.98;;;0.70;;
77170;SDS011;66144;50.020;14.422;2023-03-14T10:40:59;1.45;;;0.82;;
77170;SDS011;66144;50.020;14.422;2023-03-14T10:43:26;0.85;;;0.55;;
77170;SDS011;66144;50.020;14.422;2023-03-14T10:46:01;0.70;;;0.47;;
77170;SDS011;66144;50.020;14.422;2023-03-14T10:48:35;1.13;;;0.40;;
77170;SDS011;66144;50.020;14.422;2023-03-14T10:51:09;1.60;;;0.75;;
77170;SDS011;66144;50.020;14.422;2023-03-14T10:53:42;1.98;;;0.80;;
77170;SDS011;66144;50.020;14.422;2023-03-14T10:56:20;1.52;;;0.75;;
77170;SDS011;66144;50.020;14.422;2023-03-14T10:58:48;1.50;;;0.70;;
77170;SDS011;66144;50.020;14.422;2023-03-14T11:09:29;1.65;;;0.60;;
77170;SDS011;66144;50.020;14.422;2023-03-14T11:12:19;1.67;;;0.65;;
77170;SDS011;66144;50.020;14.422;2023-03-14T11:14:57;1.48;;;0.63;;
77170;SDS011;66144;50.020;14.422;2023-03-14T11:17:31;2.25;;;0.60;;
77170;SDS011;66144;50.020;14.422;2023-03-14T11:25:07;1.85;;;0.52;;
77170;SDS011;66144;50.020;14.422;2023-03-14T11:38:17;1.17;;;0.65;;
77170;SDS011;66144;50.020;14.422;2023-03-14T11:40:52;1.30;;;0.68;;
77170;SDS011;66144;50.020;14.422;2023-03-14T11:46:14;1.52;;;1.42;;
77170;SDS011;66144;50.020;14.422;2023-03-14T11:51:23;2.00;;;0.47;;
77170;SDS011;66144;50.020;14.422;2023-03-14T11:56:58;2.03;;;0.70;;
77170;SDS011;66144;50.020;14.422;2023-03-14T12:04:34;2.17;;;0.50;;
77170;SDS011;66144;50.020;14.422;2023-03-14T12:07:21;1.23;;;0.60;;
77170;SDS011;66144;50.020;14.422;2023-03-14T12:09:59;1.83;;;0.60;;
77170;SDS011;66144;50.020;14.422;2023-03-14T12:12:29;2.20;;;0.70;;
77170;SDS011;66144;50.020;14.422;2023-03-14T12:14:57;5.30;;;1.83;;
77170;SDS011;66144;50.020;14.422;2023-03-14T12:17:25;2.00;;;0.75;;
77170;SDS011;66144;50.020;14.422;2023-03-14T12:22:47;1.25;;;0.60;;
77170;SDS011;66144;50.020;14.422;2023-03-14T12:25:19;2.58;;;0.82;;
77170;SDS011;66144;50.020;14.422;2023-03-14T12:30:18;5.05;;;0.82;;
77170;SDS011;66144;50.020;14.422;2023-03-14T12:35:43;2.72;;;0.85;;
77170;SDS011;66144;50.020;14.422;2023-03-14T12:43:53;1.95;;;1.17;;
77170;SDS011;66144;50.020;14.422;2023-03-14T12:48:45;1.38;;;0.70;;
77170;SDS011;66144;50.020;14.422;2023-03-14T12:51:13;1.63;;;0.80;;
77170;SDS011;66144;50.020;14.422;2023-03-14T12:53:59;2.20;;;0.80;;
77170;SDS011;66144;50.020;14.422;2023-03-14T13:02:29;2.85;;;0.70;;
77170;SDS011;66144;50.020;14.422;2023-03-14T13:05:11;1.30;;;0.57;;
77170;SDS011;66144;50.020;14.422;2023-03-14T13:15:40;1.33;;;0.73;;
77170;SDS011;66144;50.020;14.422;2023-03-14T13:20:44;2.92;;;0.75;;
77170;SDS011;66144;50.020;14.422;2023-03-14T13:23:26;1.77;;;0.70;;
77170;SDS011;66144;50.020;14.422;2023-03-14T13:25:53;1.10;;;0.60;;
77170;SDS011;66144;50.020;14.422;2023-03-14T13:28:19;2.35;;;1.00;;
77170;SDS011;66144;50.020;14.422;2023-03-14T13:30:46;1.33;;;0.70;;
77170;SDS011;66144;50.020;14.422;2023-03-14T13:33:17;3.80;;;1.05;;
77170;SDS011;66144;50.020;14.422;2023-03-14T13:35:46;1.45;;;0.63;;
77170;SDS011;66144;50.020;14.422;2023-03-14T13:38:18;2.15;;;0.70;;
77170;SDS011;66144;50.020;14.422;2023-03-14T13:40:46;0.95;;;0.70;;
77170;SDS011;66144;50.020;14.422;2023-03-14T13:43:14;0.93;;;0.40;;
77170;SDS011;66144;50.020;14.422;2023-03-14T13:45:51;1.20;;;0.60;;
77170;SDS011;66144;50.020;14.422;2023-03-14T13:48:19;1.65;;;0.80;;
77170;SDS011;66144;50.020;14.422;2023-03-14T13:50:49;3.38;;;1.20;;
77170;SDS011;66144;50.020;14.422;2023-03-14T13:53:20;1.63;;;0.73;;
77170;SDS011;66144;50.020;14.422;2023-03-14T13:55:45;2.75;;;1.10;;
77170;SDS011;66144;50.020;14.422;2023-03-14T13:58:13;1.33;;;0.75;;
77170;SDS011;66144;50.020;14.422;2023-03-14T14:00:53;1.80;;;0.73;;
77170;SDS011;66144;50.020;14.422;2023-03-14T14:03:24;2.63;;;0.98;;
77170;SDS011;66144;50.020;14.422;2023-03-14T14:05:50;3.05;;;0.90;;
77170;SDS011;66144;50.020;14.422;2023-03-14T14:08:16;3.15;;;0.90;;
77170;SDS011;66144;50.020;14.422;2023-03-14T14:10:41;2.33;;;0.70;;
77170;SDS011;66144;50.020;14.422;2023-03-14T14:13:08;2.83;;;0.80;;
77170;SDS011;66144;50.020;14.422;2023-03-14T14:15:43;2.42;;;0.80;;
77170;SDS011;66144;50.020;14.422;2023-03-14T14:18:12;1.75;;;0.80;;
77170;SDS011;66144;50.020;14.422;2023-03-14T14:20:41;1.70;;;0.80;;
77170;SDS011;66144;50.020;14.422;2023-03-14T14:23:16;1.50;;;0.60;;
77170;SDS011;66144;50.020;14.422;2023-03-14T14:25:50;1.27;;;0.65;;
77170;SDS011;66144;50.020;14.422;2023-03-14T14:33:45;2.85;;;0.82;;
77170;SDS011;66144;50.020;14.422;2023-03-14T14:38:52;2.58;;;0.80;;
77170;SDS011;66144;50.020;14.422;2023-03-14T14:41:41;2.05;;;0.77;;
77170;SDS011;66144;50.020;14.422;2023-03-14T14:44:10;2.67;;;1.20;;
77170;SDS011;66144;50.020;14.422;2023-03-14T14:46:37;2.30;;;0.98;;
77170;SDS011;66144;50.020;14.422;2023-03-14T14:49:06;2.47;;;1.20;;
77170;SDS011;66144;50.020;14.422;2023-03-14T14:51:42;1.88;;;0.80;;
77170;SDS011;66144;50.020;14.422;2023-03-14T14:54:11;1.80;;;0.80;;
77170;SDS011;66144;50.020;14.422;2023-03-14T14:56:39;2.92;;;0.98;;
77170;SDS011;66144;50.020;14.422;2023-03-14T14:59:05;1.15;;;0.75;;
77170;SDS011;66144;50.020;14.422;2023-03-14T15:01:41;3.35;;;1.10;;
77170;SDS011;66144;50.020;14.422;2023-03-14T15:04:11;2.63;;;1.08;;
77170;SDS011;66144;50.020;14.422;2023-03-14T15:09:04;4.00;;;1.20;;
77170;SDS011;66144;50.020;14.422;2023-03-14T15:11:30;3.05;;;1.20;;
77170;SDS011;66144;50.020;14.422;2023-03-14T15:13:55;4.00;;;1.15;;
77170;SDS011;66144;50.020;14.422;2023-03-14T15:16:22;1.85;;;1.00;;
77170;SDS011;66144;50.020;14.422;2023-03-14T15:18:56;2.35;;;0.88;;
77170;SDS011;66144;50.020;14.422;2023-03-14T15:21:23;3.17;;;1.20;;
77170;SDS011;66144;50.020;14.422;2023-03-14T15:23:49;1.83;;;1.00;;
77170;SDS011;66144;50.020;14.422;2023-03-14T15:26:19;1.77;;;0.90;;
77170;SDS011;66144;50.020;14.422;2023-03-14T15:28:48;2.58;;;1.10;;
77170;SDS011;66144;50.020;14.422;2023-03-14T15:31:14;3.08;;;1.10;;
77170;SDS011;66144;50.020;14.422;2023-03-14T15:33:42;2.17;;;0.90;;
77170;SDS011;66144;50.020;14.422;2023-03-14T15:38:46;2.10;;;1.00;;
77170;SDS011;66144;50.020;14.422;2023-03-14T15:41:12;4.13;;;1.02;;
77170;SDS011;66144;50.020;14.422;2023-03-14T15:43:37;2.72;;;0.82;;
77170;SDS011;66144;50.020;14.422;2023-03-14T15:46:03;2.78;;;0.90;;
77170;SDS011;66144;50.020;14.422;2023-03-14T15:48:31;2.78;;;1.10;;
77170;SDS011;66144;50.020;14.422;2023-03-14T15:50:56;2.63;;;1.30;;
77170;SDS011;66144;50.020;14.422;2023-03-14T15:53:21;2.75;;;1.00;;
77170;SDS011;66144;50.020;14.422;2023-03-14T15:55:47;2.92;;;1.38;;
77170;SDS011;66144;50.020;14.422;2023-03-14T15:58:15;2.58;;;1.13;;
77170;SDS011;66144;50.020;14.422;2023-03-14T16:00:41;2.80;;;1.30;;
77170;SDS011;66144;50.020;14.422;2023-03-14T16:03:07;3.38;;;1.40;;
77170;SDS011;66144;50.020;14.422;2023-03-14T16:05:32;5.07;;;1.40;;
77170;SDS011;66144;50.020;14.422;2023-03-14T16:07:57;3.97;;;1.50;;
77170;SDS011;66144;50.020;14.422;2023-03-14T16:10:23;4.30;;;1.15;;
77170;SDS011;66144;50.020;14.422;2023-03-14T16:12:48;4.75;;;1.30;;